sensor_id;sensor_type;location;lat;lon;timestamp;temperature;humidity
13928;DHT22;7036;50.834;4.718;2023-04-25T00:00:26;18.20;55.80
13928;DHT22;7036;50.834;4.718;2023-04-25T00:02:54;18.20;55.80
13928;DHT22;7036;50.834;4.718;2023-04-25T00:05:22;18.10;55.70
13928;DHT22;7036;50.834;4.718;2023-04-25T00:07:50;18.10;55.70
13928;DHT22;7036;50.834;4.718;2023-04-25T00:10:18;18.20;55.80
13928;DHT22;7036;50.834;4.718;2023-04-25T00:12:46;18.20;55.80
13928;DHT22;7036;50.834;4.718;2023-04-25T00:15:14;18.10;55.70
13928;DHT22;7036;50.834;4.718;2023-04-25T00:17:41;18.20;55.70
13928;DHT22;7036;50.834;4.718;2023-04-25T00:20:09;18.20;55.80
13928;DHT22;7036;50.834;4.718;2023-04-25T00:22:36;18.10;55.60
13928;DHT22;7036;50.834;4.718;2023-04-25T00:25:06;18.10;55.60
13928;DHT22;7036;50.834;4.718;2023-04-25T00:27:34;18.10;55.50
13928;DHT22;7036;50.834;4.718;2023-04-25T00:30:01;18.10;55.50
13928;DHT22;7036;50.834;4.718;2023-04-25T00:32:29;18.20;55.60
13928;DHT22;7036;50.834;4.718;2023-04-25T00:34:57;18.10;55.40
13928;DHT22;7036;50.834;4.718;2023-04-25T00:37:24;18.10;55.60
13928;DHT22;7036;50.834;4.718;2023-04-25T00:39:52;18.10;55.70
13928;DHT22;7036;50.834;4.718;2023-04-25T00:42:20;18.10;55.80
13928;DHT22;7036;50.834;4.718;2023-04-25T00:44:47;18.10;55.80
13928;DHT22;7036;50.834;4.718;2023-04-25T00:47:15;18.10;55.70
13928;DHT22;7036;50.834;4.718;2023-04-25T00:49:44;18.10;55.70
13928;DHT22;7036;50.834;4.718;2023-04-25T00:52:11;18.10;55.70
13928;DHT22;7036;50.834;4.718;2023-04-25T00:54:39;18.10;55.70
13928;DHT22;7036;50.834;4.718;2023-04-25T00:57:07;18.10;55.60
13928;DHT22;7036;50.834;4.718;2023-04-25T00:59:36;18.10;55.70
13928;DHT22;7036;50.834;4.718;2023-04-25T01:02:04;18.10;55.70
13928;DHT22;7036;50.834;4.718;2023-04-25T01:04:31;18.10;55.60
13928;DHT22;7036;50.834;4.718;2023-04-25T01:06:59;18.10;55.70
13928;DHT22;7036;50.834;4.718;2023-04-25T01:09:27;18.10;55.80
13928;DHT22;7036;50.834;4.718;2023-04-25T01:11:54;18.10;55.70
13928;DHT22;7036;50.834;4.718;2023-04-25T01:14:21;18.10;55.60
13928;DHT22;7036;50.834;4.718;2023-04-25T01:16:49;18.10;55.70
13928;DHT22;7036;50.834;4.718;2023-04-25T01:19:17;18.10;55.70
13928;DHT22;7036;50.834;4.718;2023-04-25T01:21:45;18.10;55.60
13928;DHT22;7036;50.834;4.718;2023-04-25T01:24:13;18.10;55.70
13928;DHT22;7036;50.834;4.718;2023-04-25T01:26:41;18.10;55.70
13928;DHT22;7036;50.834;4.718;2023-04-25T01:29:09;18.10;55.80
13928;DHT22;7036;50.834;4.718;2023-04-25T01:31:37;18.00;56.20
13928;DHT22;7036;50.834;4.718;2023-04-25T01:34:05;18.00;55.70
13928;DHT22;7036;50.834;4.718;2023-04-25T01:36:33;18.00;55.80
13928;DHT22;7036;50.834;4.718;2023-04-25T01:39:00;18.00;55.60
13928;DHT22;7036;50.834;4.718;2023-04-25T01:41:28;18.00;55.70
13928;DHT22;7036;50.834;4.718;2023-04-25T01:43:56;18.00;55.70
13928;DHT22;7036;50.834;4.718;2023-04-25T01:46:25;18.00;55.70
13928;DHT22;7036;50.834;4.718;2023-04-25T01:48:52;18.00;55.60
13928;DHT22;7036;50.834;4.718;2023-04-25T01:51:19;18.00;55.60
13928;DHT22;7036;50.834;4.718;2023-04-25T01:53:47;17.90;55.70
13928;DHT22;7036;50.834;4.718;2023-04-25T01:56:15;18.00;55.80
13928;DHT22;7036;50.834;4.718;2023-04-25T01:58:43;17.90;55.80
13928;DHT22;7036;50.834;4.718;2023-04-25T02:01:11;18.00;55.80
13928;DHT22;7036;50.834;4.718;2023-04-25T02:03:39;18.00;55.70
13928;DHT22;7036;50.834;4.718;2023-04-25T02:06:07;17.90;55.70
13928;DHT22;7036;50.834;4.718;2023-04-25T02:08:34;17.90;55.60
13928;DHT22;7036;50.834;4.718;2023-04-25T02:11:02;18.00;55.80
13928;DHT22;7036;50.834;4.718;2023-04-25T02:13:30;17.90;55.70
13928;DHT22;7036;50.834;4.718;2023-04-25T02:15:57;17.90;55.60
13928;DHT22;7036;50.834;4.718;2023-04-25T02:18:25;18.00;55.70
13928;DHT22;7036;50.834;4.718;2023-04-25T02:20:54;17.90;55.70
13928;DHT22;7036;50.834;4.718;2023-04-25T02:23:21;17.90;55.60
13928;DHT22;7036;50.834;4.718;2023-04-25T02:25:49;17.90;55.80
13928;DHT22;7036;50.834;4.718;2023-04-25T02:28:17;17.90;55.80
13928;DHT22;7036;50.834;4.718;2023-04-25T02:30:45;17.90;55.80
13928;DHT22;7036;50.834;4.718;2023-04-25T02:33:13;17.90;55.70
13928;DHT22;7036;50.834;4.718;2023-04-25T02:35:40;17.90;55.60
13928;DHT22;7036;50.834;4.718;2023-04-25T02:38:08;17.90;55.80
13928;DHT22;7036;50.834;4.718;2023-04-25T02:40:35;17.90;55.70
13928;DHT22;7036;50.834;4.718;2023-04-25T02:43:03;17.90;55.80
13928;DHT22;7036;50.834;4.718;2023-04-25T02:45:31;17.90;55.70
13928;DHT22;7036;50.834;4.718;2023-04-25T02:47:59;17.90;55.60
13928;DHT22;7036;50.834;4.718;2023-04-25T02:50:27;17.90;55.70
13928;DHT22;7036;50.834;4.718;2023-04-25T02:52:55;17.90;55.70
13928;DHT22;7036;50.834;4.718;2023-04-25T02:55:24;17.90;55.70
13928;DHT22;7036;50.834;4.718;2023-04-25T02:57:51;17.90;55.60
13928;DHT22;7036;50.834;4.718;2023-04-25T03:00:18;17.90;55.70
13928;DHT22;7036;50.834;4.718;2023-04-25T03:02:46;17.80;55.80
13928;DHT22;7036;50.834;4.718;2023-04-25T03:05:14;17.80;55.80
13928;DHT22;7036;50.834;4.718;2023-04-25T03:07:43;17.80;55.80
13928;DHT22;7036;50.834;4.718;2023-04-25T03:10:11;17.80;55.80
13928;DHT22;7036;50.834;4.718;2023-04-25T03:12:38;17.80;55.80
13928;DHT22;7036;50.834;4.718;2023-04-25T03:15:07;17.70;55.70
13928;DHT22;7036;50.834;4.718;2023-04-25T03:17:34;17.80;55.80
13928;DHT22;7036;50.834;4.718;2023-04-25T03:20:01;17.80;55.60
13928;DHT22;7036;50.834;4.718;2023-04-25T03:22:29;17.80;55.70
13928;DHT22;7036;50.834;4.718;2023-04-25T03:24:56;17.80;55.70
13928;DHT22;7036;50.834;4.718;2023-04-25T03:27:24;17.80;55.80
13928;DHT22;7036;50.834;4.718;2023-04-25T03:29:52;17.80;55.80
13928;DHT22;7036;50.834;4.718;2023-04-25T03:32:20;17.80;55.80
13928;DHT22;7036;50.834;4.718;2023-04-25T03:34:47;17.80;55.60
13928;DHT22;7036;50.834;4.718;2023-04-25T03:37:14;17.80;55.60
13928;DHT22;7036;50.834;4.718;2023-04-25T03:39:42;17.70;55.60
13928;DHT22;7036;50.834;4.718;2023-04-25T03:42:09;17.70;55.70
13928;DHT22;7036;50.834;4.718;2023-04-25T03:44:38;17.70;55.70
13928;DHT22;7036;50.834;4.718;2023-04-25T03:47:04;17.70;55.70
13928;DHT22;7036;50.834;4.718;2023-04-25T03:49:32;17.70;55.60
13928;DHT22;7036;50.834;4.718;2023-04-25T03:51:59;17.70;55.70
13928;DHT22;7036;50.834;4.718;2023-04-25T03:54:27;17.70;55.70
13928;DHT22;7036;50.834;4.718;2023-04-25T03:56:55;17.70;55.70
13928;DHT22;7036;50.834;4.718;2023-04-25T03:59:23;17.70;55.70
13928;DHT22;7036;50.834;4.718;2023-04-25T04:01:50;17.70;55.70
13928;DHT22;7036;50.834;4.718;2023-04-25T04:04:17;17.70;55.70
13928;DHT22;7036;50.834;4.718;2023-04-25T04:06:44;17.70;55.60
13928;DHT22;7036;50.834;4.718;2023-04-25T04:09:12;17.70;55.70
13928;DHT22;7036;50.834;4.718;2023-04-25T04:11:40;17.60;55.70
13928;DHT22;7036;50.834;4.718;2023-04-25T04:14:08;17.70;55.80
13928;DHT22;7036;50.834;4.718;2023-04-25T04:16:36;17.70;55.70
13928;DHT22;7036;50.834;4.718;2023-04-25T04:19:03;17.70;55.60
13928;DHT22;7036;50.834;4.718;2023-04-25T04:21:31;17.70;55.70
13928;DHT22;7036;50.834;4.718;2023-04-25T04:23:59;17.70;55.70
13928;DHT22;7036;50.834;4.718;2023-04-25T04:26:27;17.60;55.70
13928;DHT22;7036;50.834;4.718;2023-04-25T04:28:55;17.60;55.70
13928;DHT22;7036;50.834;4.718;2023-04-25T04:31:23;17.60;55.70
13928;DHT22;7036;50.834;4.718;2023-04-25T04:33:49;17.60;55.60
13928;DHT22;7036;50.834;4.718;2023-04-25T04:36:17;17.60;55.70
13928;DHT22;7036;50.834;4.718;2023-04-25T04:38:46;17.60;55.60
13928;DHT22;7036;50.834;4.718;2023-04-25T04:41:13;17.60;55.50
13928;DHT22;7036;50.834;4.718;2023-04-25T04:43:40;17.60;55.40
13928;DHT22;7036;50.834;4.718;2023-04-25T04:46:07;17.60;55.40
13928;DHT22;7036;50.834;4.718;2023-04-25T04:48:34;17.60;54.80
13928;DHT22;7036;50.834;4.718;2023-04-25T04:51:02;17.60;55.60
13928;DHT22;7036;50.834;4.718;2023-04-25T04:53:29;17.60;55.40
13928;DHT22;7036;50.834;4.718;2023-04-25T04:55:57;17.60;55.60
13928;DHT22;7036;50.834;4.718;2023-04-25T04:58:25;17.60;55.60
13928;DHT22;7036;50.834;4.718;2023-04-25T05:00:53;17.60;55.70
13928;DHT22;7036;50.834;4.718;2023-04-25T05:03:21;17.60;55.60
13928;DHT22;7036;50.834;4.718;2023-04-25T05:05:49;17.60;55.60
13928;DHT22;7036;50.834;4.718;2023-04-25T05:08:16;17.60;55.60
13928;DHT22;7036;50.834;4.718;2023-04-25T05:10:44;17.60;55.60
13928;DHT22;7036;50.834;4.718;2023-04-25T05:13:12;17.60;55.60
13928;DHT22;7036;50.834;4.718;2023-04-25T05:15:40;17.60;55.60
13928;DHT22;7036;50.834;4.718;2023-04-25T05:18:08;17.60;55.50
13928;DHT22;7036;50.834;4.718;2023-04-25T05:20:35;17.50;54.80
13928;DHT22;7036;50.834;4.718;2023-04-25T05:23:04;17.60;55.70
13928;DHT22;7036;50.834;4.718;2023-04-25T05:25:30;17.60;55.60
13928;DHT22;7036;50.834;4.718;2023-04-25T05:27:58;17.60;55.70
13928;DHT22;7036;50.834;4.718;2023-04-25T05:30:28;17.60;55.60
13928;DHT22;7036;50.834;4.718;2023-04-25T05:32:55;17.50;55.50
13928;DHT22;7036;50.834;4.718;2023-04-25T05:35:22;17.60;55.60
13928;DHT22;7036;50.834;4.718;2023-04-25T05:37:50;17.60;55.60
13928;DHT22;7036;50.834;4.718;2023-04-25T05:40:18;17.60;55.70
13928;DHT22;7036;50.834;4.718;2023-04-25T05:42:46;17.60;55.60
13928;DHT22;7036;50.834;4.718;2023-04-25T05:45:13;17.60;55.50
13928;DHT22;7036;50.834;4.718;2023-04-25T05:47:40;17.50;55.40
13928;DHT22;7036;50.834;4.718;2023-04-25T05:50:09;17.60;55.60
13928;DHT22;7036;50.834;4.718;2023-04-25T05:52:36;17.50;55.40
13928;DHT22;7036;50.834;4.718;2023-04-25T05:55:04;17.50;55.60
13928;DHT22;7036;50.834;4.718;2023-04-25T05:57:32;17.50;55.60
13928;DHT22;7036;50.834;4.718;2023-04-25T06:00:00;17.50;55.60
13928;DHT22;7036;50.834;4.718;2023-04-25T06:02:27;17.50;55.50
13928;DHT22;7036;50.834;4.718;2023-04-25T06:04:54;17.50;55.40
13928;DHT22;7036;50.834;4.718;2023-04-25T06:07:22;17.60;55.50
13928;DHT22;7036;50.834;4.718;2023-04-25T06:09:49;17.60;55.50
13928;DHT22;7036;50.834;4.718;2023-04-25T06:12:16;17.60;55.50
13928;DHT22;7036;50.834;4.718;2023-04-25T06:14:44;17.50;55.50
13928;DHT22;7036;50.834;4.718;2023-04-25T06:17:12;17.60;55.60
13928;DHT22;7036;50.834;4.718;2023-04-25T06:19:40;17.50;55.50
13928;DHT22;7036;50.834;4.718;2023-04-25T06:22:07;17.50;55.40
13928;DHT22;7036;50.834;4.718;2023-04-25T06:24:34;17.50;55.40
13928;DHT22;7036;50.834;4.718;2023-04-25T06:27:02;17.60;55.40
13928;DHT22;7036;50.834;4.718;2023-04-25T06:29:29;17.60;55.40
13928;DHT22;7036;50.834;4.718;2023-04-25T06:31:56;17.60;55.30
13928;DHT22;7036;50.834;4.718;2023-04-25T06:34:24;17.60;55.40
13928;DHT22;7036;50.834;4.718;2023-04-25T06:36:52;17.60;55.50
13928;DHT22;7036;50.834;4.718;2023-04-25T06:39:20;17.60;55.40
13928;DHT22;7036;50.834;4.718;2023-04-25T06:41:49;17.60;55.50
13928;DHT22;7036;50.834;4.718;2023-04-25T06:44:17;17.50;55.50
13928;DHT22;7036;50.834;4.718;2023-04-25T06:46:44;17.50;55.40
13928;DHT22;7036;50.834;4.718;2023-04-25T06:49:12;17.50;55.40
13928;DHT22;7036;50.834;4.718;2023-04-25T06:51:40;17.50;55.40
13928;DHT22;7036;50.834;4.718;2023-04-25T06:54:07;17.50;55.60
13928;DHT22;7036;50.834;4.718;2023-04-25T06:56:36;17.50;55.60
13928;DHT22;7036;50.834;4.718;2023-04-25T06:59:03;17.50;55.50
13928;DHT22;7036;50.834;4.718;2023-04-25T07:01:31;17.50;55.60
13928;DHT22;7036;50.834;4.718;2023-04-25T07:03:59;17.50;55.60
13928;DHT22;7036;50.834;4.718;2023-04-25T07:06:26;17.50;55.50
13928;DHT22;7036;50.834;4.718;2023-04-25T07:08:54;17.60;55.60
13928;DHT22;7036;50.834;4.718;2023-04-25T07:11:22;17.60;55.60
13928;DHT22;7036;50.834;4.718;2023-04-25T07:13:50;17.60;55.50
13928;DHT22;7036;50.834;4.718;2023-04-25T07:16:18;17.60;55.50
13928;DHT22;7036;50.834;4.718;2023-04-25T07:18:46;17.70;55.60
13928;DHT22;7036;50.834;4.718;2023-04-25T07:21:14;17.80;55.70
13928;DHT22;7036;50.834;4.718;2023-04-25T07:23:42;17.90;55.60
13928;DHT22;7036;50.834;4.718;2023-04-25T07:26:10;18.00;55.40
13928;DHT22;7036;50.834;4.718;2023-04-25T07:28:37;18.00;55.30
13928;DHT22;7036;50.834;4.718;2023-04-25T07:31:05;18.20;55.30
13928;DHT22;7036;50.834;4.718;2023-04-25T07:33:32;18.30;55.10
13928;DHT22;7036;50.834;4.718;2023-04-25T07:36:00;18.50;54.80
13928;DHT22;7036;50.834;4.718;2023-04-25T07:38:28;18.50;54.70
13928;DHT22;7036;50.834;4.718;2023-04-25T07:40:56;18.60;54.70
13928;DHT22;7036;50.834;4.718;2023-04-25T07:43:23;18.60;54.60
13928;DHT22;7036;50.834;4.718;2023-04-25T07:45:51;18.60;54.70
13928;DHT22;7036;50.834;4.718;2023-04-25T07:48:18;18.60;54.60
13928;DHT22;7036;50.834;4.718;2023-04-25T07:50:46;18.70;54.70
13928;DHT22;7036;50.834;4.718;2023-04-25T07:53:13;18.70;54.70
13928;DHT22;7036;50.834;4.718;2023-04-25T07:55:41;18.70;54.90
13928;DHT22;7036;50.834;4.718;2023-04-25T07:58:09;18.80;55.00
13928;DHT22;7036;50.834;4.718;2023-04-25T08:00:36;18.70;54.90
13928;DHT22;7036;50.834;4.718;2023-04-25T08:03:03;18.70;55.00
13928;DHT22;7036;50.834;4.718;2023-04-25T08:05:31;18.70;55.40
13928;DHT22;7036;50.834;4.718;2023-04-25T08:07:59;18.70;55.40
13928;DHT22;7036;50.834;4.718;2023-04-25T08:10:26;18.70;55.40
13928;DHT22;7036;50.834;4.718;2023-04-25T08:12:54;18.70;55.40
13928;DHT22;7036;50.834;4.718;2023-04-25T08:15:22;18.70;55.70
13928;DHT22;7036;50.834;4.718;2023-04-25T08:17:49;18.60;55.50
13928;DHT22;7036;50.834;4.718;2023-04-25T08:20:17;18.60;55.50
13928;DHT22;7036;50.834;4.718;2023-04-25T08:22:44;18.60;55.40
13928;DHT22;7036;50.834;4.718;2023-04-25T08:25:11;18.60;55.50
13928;DHT22;7036;50.834;4.718;2023-04-25T08:27:39;18.60;55.80
13928;DHT22;7036;50.834;4.718;2023-04-25T08:30:08;18.60;55.80
13928;DHT22;7036;50.834;4.718;2023-04-25T08:32:35;18.60;55.70
13928;DHT22;7036;50.834;4.718;2023-04-25T08:35:02;18.60;55.80
13928;DHT22;7036;50.834;4.718;2023-04-25T08:37:29;18.60;55.80
13928;DHT22;7036;50.834;4.718;2023-04-25T08:39:57;18.60;56.00
13928;DHT22;7036;50.834;4.718;2023-04-25T08:42:26;18.60;56.00
13928;DHT22;7036;50.834;4.718;2023-04-25T08:44:53;18.50;56.00
13928;DHT22;7036;50.834;4.718;2023-04-25T08:47:21;18.50;56.00
13928;DHT22;7036;50.834;4.718;2023-04-25T08:49:49;18.50;56.00
13928;DHT22;7036;50.834;4.718;2023-04-25T08:52:16;18.40;55.80
13928;DHT22;7036;50.834;4.718;2023-04-25T08:54:44;18.40;55.90
13928;DHT22;7036;50.834;4.718;2023-04-25T08:57:11;18.40;55.80
13928;DHT22;7036;50.834;4.718;2023-04-25T08:59:39;18.40;56.00
13928;DHT22;7036;50.834;4.718;2023-04-25T09:02:07;18.40;56.00
13928;DHT22;7036;50.834;4.718;2023-04-25T09:04:35;18.40;55.80
13928;DHT22;7036;50.834;4.718;2023-04-25T09:07:03;18.40;55.80
13928;DHT22;7036;50.834;4.718;2023-04-25T09:09:30;18.40;55.70
13928;DHT22;7036;50.834;4.718;2023-04-25T09:11:58;18.40;55.80
13928;DHT22;7036;50.834;4.718;2023-04-25T09:14:26;18.40;55.80
13928;DHT22;7036;50.834;4.718;2023-04-25T09:16:58;18.40;55.90
13928;DHT22;7036;50.834;4.718;2023-04-25T09:19:27;18.30;55.70
13928;DHT22;7036;50.834;4.718;2023-04-25T09:21:55;18.40;55.80
13928;DHT22;7036;50.834;4.718;2023-04-25T09:26:58;18.40;55.70
13928;DHT22;7036;50.834;4.718;2023-04-25T09:29:29;18.40;55.90
13928;DHT22;7036;50.834;4.718;2023-04-25T09:34:40;18.40;55.60
13928;DHT22;7036;50.834;4.718;2023-04-25T09:37:09;18.30;55.60
13928;DHT22;7036;50.834;4.718;2023-04-25T09:39:39;18.30;55.50
13928;DHT22;7036;50.834;4.718;2023-04-25T09:42:07;18.30;55.30
13928;DHT22;7036;50.834;4.718;2023-04-25T09:44:35;18.30;53.90
13928;DHT22;7036;50.834;4.718;2023-04-25T09:47:02;18.20;54.10
13928;DHT22;7036;50.834;4.718;2023-04-25T09:49:30;18.20;54.70
13928;DHT22;7036;50.834;4.718;2023-04-25T09:51:59;18.20;54.50
13928;DHT22;7036;50.834;4.718;2023-04-25T09:54:26;18.20;54.40
13928;DHT22;7036;50.834;4.718;2023-04-25T09:56:53;18.30;54.70
13928;DHT22;7036;50.834;4.718;2023-04-25T09:59:21;18.30;54.60
13928;DHT22;7036;50.834;4.718;2023-04-25T10:01:51;18.30;54.50
13928;DHT22;7036;50.834;4.718;2023-04-25T10:04:24;18.30;54.10
13928;DHT22;7036;50.834;4.718;2023-04-25T10:06:51;18.30;54.40
13928;DHT22;7036;50.834;4.718;2023-04-25T10:09:19;18.30;54.40
13928;DHT22;7036;50.834;4.718;2023-04-25T10:11:46;18.30;54.40
13928;DHT22;7036;50.834;4.718;2023-04-25T10:14:13;18.30;54.40
13928;DHT22;7036;50.834;4.718;2023-04-25T10:16:40;18.30;54.50
13928;DHT22;7036;50.834;4.718;2023-04-25T10:19:09;18.30;54.50
13928;DHT22;7036;50.834;4.718;2023-04-25T10:21:37;18.30;54.60
13928;DHT22;7036;50.834;4.718;2023-04-25T10:24:04;18.30;54.60
13928;DHT22;7036;50.834;4.718;2023-04-25T10:26:32;18.30;54.60
13928;DHT22;7036;50.834;4.718;2023-04-25T10:29:01;18.30;54.60
13928;DHT22;7036;50.834;4.718;2023-04-25T10:31:30;18.30;54.60
13928;DHT22;7036;50.834;4.718;2023-04-25T10:33:56;18.30;54.50
13928;DHT22;7036;50.834;4.718;2023-04-25T10:36:23;18.30;54.50
13928;DHT22;7036;50.834;4.718;2023-04-25T10:38:50;18.30;53.70
13928;DHT22;7036;50.834;4.718;2023-04-25T10:41:19;18.40;54.40
13928;DHT22;7036;50.834;4.718;2023-04-25T10:43:48;18.40;54.40
13928;DHT22;7036;50.834;4.718;2023-04-25T10:46:14;18.40;54.40
13928;DHT22;7036;50.834;4.718;2023-04-25T10:48:51;18.40;54.40
13928;DHT22;7036;50.834;4.718;2023-04-25T10:51:18;18.40;54.20
13928;DHT22;7036;50.834;4.718;2023-04-25T10:53:44;18.40;54.20
13928;DHT22;7036;50.834;4.718;2023-04-25T10:56:16;18.40;54.30
13928;DHT22;7036;50.834;4.718;2023-04-25T10:58:44;18.40;54.20
13928;DHT22;7036;50.834;4.718;2023-04-25T11:01:08;18.40;54.20
13928;DHT22;7036;50.834;4.718;2023-04-25T11:03:43;18.40;54.20
13928;DHT22;7036;50.834;4.718;2023-04-25T11:06:15;18.40;54.10
13928;DHT22;7036;50.834;4.718;2023-04-25T11:08:48;18.40;54.30
13928;DHT22;7036;50.834;4.718;2023-04-25T11:11:05;18.40;54.30
13928;DHT22;7036;50.834;4.718;2023-04-25T11:13:33;18.40;54.20
13928;DHT22;7036;50.834;4.718;2023-04-25T11:16:00;18.40;54.20
13928;DHT22;7036;50.834;4.718;2023-04-25T11:18:28;18.40;54.10
13928;DHT22;7036;50.834;4.718;2023-04-25T11:20:56;18.40;54.00
13928;DHT22;7036;50.834;4.718;2023-04-25T11:23:25;18.40;54.00
13928;DHT22;7036;50.834;4.718;2023-04-25T11:25:52;18.40;53.90
13928;DHT22;7036;50.834;4.718;2023-04-25T11:28:21;18.30;54.00
13928;DHT22;7036;50.834;4.718;2023-04-25T11:30:48;18.30;53.80
13928;DHT22;7036;50.834;4.718;2023-04-25T11:33:16;18.30;54.00
13928;DHT22;7036;50.834;4.718;2023-04-25T11:35:43;18.30;53.90
13928;DHT22;7036;50.834;4.718;2023-04-25T11:38:11;18.30;54.10
13928;DHT22;7036;50.834;4.718;2023-04-25T11:40:38;18.30;54.00
13928;DHT22;7036;50.834;4.718;2023-04-25T11:43:06;18.30;54.00
13928;DHT22;7036;50.834;4.718;2023-04-25T11:45:33;18.30;54.00
13928;DHT22;7036;50.834;4.718;2023-04-25T11:48:01;18.30;55.30
13928;DHT22;7036;50.834;4.718;2023-04-25T11:50:29;18.30;55.20
13928;DHT22;7036;50.834;4.718;2023-04-25T11:52:57;18.30;55.20
13928;DHT22;7036;50.834;4.718;2023-04-25T11:55:24;18.30;55.50
13928;DHT22;7036;50.834;4.718;2023-04-25T11:57:52;18.30;55.40
13928;DHT22;7036;50.834;4.718;2023-04-25T12:00:19;18.40;55.70
13928;DHT22;7036;50.834;4.718;2023-04-25T12:02:47;18.40;55.80
13928;DHT22;7036;50.834;4.718;2023-04-25T12:05:14;18.50;55.70
13928;DHT22;7036;50.834;4.718;2023-04-25T12:07:41;18.60;55.70
13928;DHT22;7036;50.834;4.718;2023-04-25T12:10:12;18.70;55.60
13928;DHT22;7036;50.834;4.718;2023-04-25T12:12:38;18.70;55.40
13928;DHT22;7036;50.834;4.718;2023-04-25T12:15:15;18.90;55.30
13928;DHT22;7036;50.834;4.718;2023-04-25T12:17:42;18.90;55.20
13928;DHT22;7036;50.834;4.718;2023-04-25T12:20:09;18.90;55.00
13928;DHT22;7036;50.834;4.718;2023-04-25T12:22:36;19.00;54.90
13928;DHT22;7036;50.834;4.718;2023-04-25T12:25:04;19.00;54.80
13928;DHT22;7036;50.834;4.718;2023-04-25T12:27:31;19.00;54.70
13928;DHT22;7036;50.834;4.718;2023-04-25T12:29:58;19.00;54.70
13928;DHT22;7036;50.834;4.718;2023-04-25T12:32:25;19.00;54.60
13928;DHT22;7036;50.834;4.718;2023-04-25T12:34:52;19.10;54.60
13928;DHT22;7036;50.834;4.718;2023-04-25T12:37:19;19.10;54.60
13928;DHT22;7036;50.834;4.718;2023-04-25T12:39:47;19.10;54.60
13928;DHT22;7036;50.834;4.718;2023-04-25T12:42:14;19.00;54.50
13928;DHT22;7036;50.834;4.718;2023-04-25T12:44:42;19.00;54.40
13928;DHT22;7036;50.834;4.718;2023-04-25T12:47:10;19.10;54.60
13928;DHT22;7036;50.834;4.718;2023-04-25T12:49:38;19.10;54.60
13928;DHT22;7036;50.834;4.718;2023-04-25T12:52:06;19.10;54.60
13928;DHT22;7036;50.834;4.718;2023-04-25T12:54:33;19.10;54.50
13928;DHT22;7036;50.834;4.718;2023-04-25T12:57:00;19.10;54.50
13928;DHT22;7036;50.834;4.718;2023-04-25T12:59:27;19.10;54.50
13928;DHT22;7036;50.834;4.718;2023-04-25T13:01:54;19.20;54.70
13928;DHT22;7036;50.834;4.718;2023-04-25T13:04:22;19.20;54.70
13928;DHT22;7036;50.834;4.718;2023-04-25T13:06:49;19.20;54.80
13928;DHT22;7036;50.834;4.718;2023-04-25T13:09:16;19.20;54.80
13928;DHT22;7036;50.834;4.718;2023-04-25T13:11:43;19.20;54.90
13928;DHT22;7036;50.834;4.718;2023-04-25T13:14:10;19.30;55.60
13928;DHT22;7036;50.834;4.718;2023-04-25T13:16:38;19.20;54.90
13928;DHT22;7036;50.834;4.718;2023-04-25T13:19:05;19.30;55.00
13928;DHT22;7036;50.834;4.718;2023-04-25T13:21:32;19.30;54.90
13928;DHT22;7036;50.834;4.718;2023-04-25T13:23:59;19.30;54.90
13928;DHT22;7036;50.834;4.718;2023-04-25T13:26:26;19.30;55.00
13928;DHT22;7036;50.834;4.718;2023-04-25T13:28:54;19.30;55.10
13928;DHT22;7036;50.834;4.718;2023-04-25T13:31:21;19.30;55.20
13928;DHT22;7036;50.834;4.718;2023-04-25T13:33:48;19.30;55.20
13928;DHT22;7036;50.834;4.718;2023-04-25T13:36:15;19.20;55.10
13928;DHT22;7036;50.834;4.718;2023-04-25T13:38:42;19.30;55.10
13928;DHT22;7036;50.834;4.718;2023-04-25T13:41:10;19.20;55.00
13928;DHT22;7036;50.834;4.718;2023-04-25T13:43:37;19.20;54.90
13928;DHT22;7036;50.834;4.718;2023-04-25T13:46:04;19.20;54.90
13928;DHT22;7036;50.834;4.718;2023-04-25T13:48:32;19.20;54.90
13928;DHT22;7036;50.834;4.718;2023-04-25T13:50:59;19.20;54.80
13928;DHT22;7036;50.834;4.718;2023-04-25T13:53:27;19.20;54.70
13928;DHT22;7036;50.834;4.718;2023-04-25T13:55:55;19.20;54.60
13928;DHT22;7036;50.834;4.718;2023-04-25T13:58:23;19.20;54.70
13928;DHT22;7036;50.834;4.718;2023-04-25T14:00:50;19.20;54.50
13928;DHT22;7036;50.834;4.718;2023-04-25T14:03:18;19.20;54.50
13928;DHT22;7036;50.834;4.718;2023-04-25T14:05:45;19.10;54.30
13928;DHT22;7036;50.834;4.718;2023-04-25T14:08:13;19.20;54.40
13928;DHT22;7036;50.834;4.718;2023-04-25T14:10:41;19.20;54.40
13928;DHT22;7036;50.834;4.718;2023-04-25T14:13:09;19.20;54.30
13928;DHT22;7036;50.834;4.718;2023-04-25T14:15:37;19.20;54.30
13928;DHT22;7036;50.834;4.718;2023-04-25T14:18:05;19.20;54.40
13928;DHT22;7036;50.834;4.718;2023-04-25T14:20:33;19.20;55.00
13928;DHT22;7036;50.834;4.718;2023-04-25T14:23:01;19.20;54.90
13928;DHT22;7036;50.834;4.718;2023-04-25T14:25:29;19.20;54.70
13928;DHT22;7036;50.834;4.718;2023-04-25T14:27:56;19.20;54.50
13928;DHT22;7036;50.834;4.718;2023-04-25T14:30:24;19.20;54.30
13928;DHT22;7036;50.834;4.718;2023-04-25T14:32:51;19.20;54.40
13928;DHT22;7036;50.834;4.718;2023-04-25T14:35:18;19.10;54.30
13928;DHT22;7036;50.834;4.718;2023-04-25T14:37:45;19.10;54.40
13928;DHT22;7036;50.834;4.718;2023-04-25T14:40:13;19.10;54.40
13928;DHT22;7036;50.834;4.718;2023-04-25T14:42:40;19.10;54.20
13928;DHT22;7036;50.834;4.718;2023-04-25T14:45:08;19.10;54.20
13928;DHT22;7036;50.834;4.718;2023-04-25T14:47:36;19.10;54.10
13928;DHT22;7036;50.834;4.718;2023-04-25T14:50:03;19.00;54.00
13928;DHT22;7036;50.834;4.718;2023-04-25T14:52:31;19.10;53.60
13928;DHT22;7036;50.834;4.718;2023-04-25T14:54:58;19.10;53.50
13928;DHT22;7036;50.834;4.718;2023-04-25T14:57:26;19.10;53.80
13928;DHT22;7036;50.834;4.718;2023-04-25T14:59:53;19.10;53.70
13928;DHT22;7036;50.834;4.718;2023-04-25T15:02:21;19.10;53.80
13928;DHT22;7036;50.834;4.718;2023-04-25T15:04:50;19.10;53.70
13928;DHT22;7036;50.834;4.718;2023-04-25T15:07:16;19.10;53.70
13928;DHT22;7036;50.834;4.718;2023-04-25T15:09:43;19.10;53.80
13928;DHT22;7036;50.834;4.718;2023-04-25T15:12:11;19.10;53.70
13928;DHT22;7036;50.834;4.718;2023-04-25T15:14:38;19.10;53.70
13928;DHT22;7036;50.834;4.718;2023-04-25T15:17:06;19.10;53.70
13928;DHT22;7036;50.834;4.718;2023-04-25T15:19:33;19.10;53.60
13928;DHT22;7036;50.834;4.718;2023-04-25T15:22:06;19.10;53.60
13928;DHT22;7036;50.834;4.718;2023-04-25T15:24:33;19.10;53.60
13928;DHT22;7036;50.834;4.718;2023-04-25T15:27:00;19.10;53.60
13928;DHT22;7036;50.834;4.718;2023-04-25T15:29:28;19.00;53.60
13928;DHT22;7036;50.834;4.718;2023-04-25T15:31:57;19.00;53.60
13928;DHT22;7036;50.834;4.718;2023-04-25T15:34:24;19.00;53.40
13928;DHT22;7036;50.834;4.718;2023-04-25T15:36:52;19.00;53.50
13928;DHT22;7036;50.834;4.718;2023-04-25T15:39:20;19.00;53.40
13928;DHT22;7036;50.834;4.718;2023-04-25T15:41:48;19.00;53.50
13928;DHT22;7036;50.834;4.718;2023-04-25T15:44:16;19.00;53.50
13928;DHT22;7036;50.834;4.718;2023-04-25T15:46:45;19.00;53.60
13928;DHT22;7036;50.834;4.718;2023-04-25T15:49:11;19.00;53.40
13928;DHT22;7036;50.834;4.718;2023-04-25T15:51:38;19.00;53.50